Martin State Airport
KMTN : rendu visible

Aérodrome :











RETROUVEZ-NOUS SUR...

 
LOGIN :

S'inscrire | Disclaimer

   EN    FR    IT 

 









Légende :    VFR   VFR Marginal   IFR   IFR Intensif   IFR Très Intensif
Visi : 
Plafond : 
>= 8 km
>= 3000ft
5 à 8 km
1000 à 3000 ft
1500m à 5 km
500 à 1000 ft
800 à 1500m
200 à 500 ft
< 800m
< 200 ft
Symboles :   Orages  Brouillard  Fortes neiges  Fortes précipitations  Vent > 20 kt






- Altitude de l'aérodrome : 21 ft


KMTN - Martin State

DERNIER METAR :
  • 221554Z 27009G15KT 10SM SKC 07/M13 A3038

METARs EXPIRÉS :
  • 221454Z 23005KT 10SM SKC 03/M12 A3041
  • 221354Z 22006KT 10SM SKC 02/M10 A3042

TAF KMTN
Valide du 22 à 12h jusqu'au 23 à 12h UTC


221147Z 2212/2312 20005KT P6SM SKC
FM221500 23009KT P6SM SKC
FM230300 25004KT P6SM SKC



MET'MAP, la Météo Aéronautique d'un coup d'oeil ! - Copyright ORBIFLY Décembre 2007 - Disclaimer

ORBIFLY MET'MAP TEAM :

Programmation & Développement : Alexandra Zaïnal
Sur une idée originale de : Baudouin d'Aumeries
Assistance à la programmation : Marc-Olivier Méhu
Soutien technique & logistique : Manuel Goepfert

Contact : metmap@orbifly.com




SOURCES & CREDITS :

   NOAA       Earth
Advisory